Time;durP1;ratioP1;P1;durP2;ratioP2;P2;SDS_P1;SDS_P2;PMS_P1;PMS_P2;Temp;Humidity;BMP_temperature;BMP_pressure;BME280_temperature;BME280_humidity;BME280_pressure;Samples;Min_cycle;Max_cycle;Signal;HPM_P1;HPM_P2
2023/07/17 00:00:20;;;;;;;3.42;3.13;;;23.50;99.90;;;;;;5105080;28;20224;-82
2023/07/17 00:02:48;;;;;;;5.18;3.33;;;23.50;99.90;;;;;;5105402;28;20639;-82
2023/07/17 00:05:15;;;;;;;3.50;3.30;;;23.50;99.90;;;;;;5105252;28;20730;-86
2023/07/17 00:07:42;;;;;;;3.60;3.30;;;23.50;99.90;;;;;;5104778;27;20237;-82
2023/07/17 00:10:10;;;;;;;3.78;3.35;;;23.40;99.90;;;;;;5105141;28;20963;-82
2023/07/17 00:12:37;;;;;;;5.63;3.53;;;23.50;99.90;;;;;;5104964;28;20235;-81
2023/07/17 00:15:05;;;;;;;4.55;3.22;;;23.40;99.90;;;;;;5104888;28;20322;-81
2023/07/17 00:17:32;;;;;;;4.97;2.80;;;23.40;99.90;;;;;;5104646;28;20670;-81
2023/07/17 00:20:02;;;;;;;6.20;3.33;;;23.20;99.90;;;;;;5129791;27;20288;-81
2023/07/17 00:22:29;;;;;;;6.32;3.75;;;23.00;99.90;;;;;;5104470;28;20684;-81
2023/07/17 00:24:56;;;;;;;4.68;2.90;;;22.90;99.90;;;;;;5104610;28;20202;-80
2023/07/17 00:27:22;;;;;;;5.28;3.50;;;23.00;99.90;;;;;;5104548;28;20206;-81
2023/07/17 00:29:49;;;;;;;3.42;3.13;;;23.10;99.90;;;;;;5103936;28;20598;-81
2023/07/17 00:32:16;;;;;;;4.65;3.40;;;23.10;99.90;;;;;;5115072;28;20249;-81
2023/07/17 00:34:43;;;;;;;3.08;2.88;;;23.10;99.90;;;;;;5124868;28;20213;-81
2023/07/17 00:37:12;;;;;;;3.35;3.05;;;23.10;99.90;;;;;;5124717;28;20677;-80
2023/07/17 00:39:39;;;;;;;4.88;3.45;;;23.10;99.90;;;;;;5114351;27;20202;-80
2023/07/17 00:42:06;;;;;;;3.90;3.40;;;23.10;99.90;;;;;;5116312;28;20289;-80
2023/07/17 00:44:35;;;;;;;3.40;3.20;;;23.10;99.90;;;;;;5120723;28;20205;-80
2023/07/17 00:47:03;;;;;;;3.25;2.95;;;23.00;99.90;;;;;;5124596;28;20254;-79
2023/07/17 00:49:30;;;;;;;3.75;3.00;;;23.00;99.90;;;;;;5124835;28;20325;-80
2023/07/17 00:51:59;;;;;;;3.90;3.20;;;23.00;99.90;;;;;;5124453;28;20288;-80
2023/07/17 00:54:29;;;;;;;5.20;3.60;;;23.00;99.90;;;;;;5124936;28;20229;-80
2023/07/17 00:56:58;;;;;;;3.58;3.13;;;23.00;99.90;;;;;;5124222;28;20648;-80
2023/07/17 00:59:25;;;;;;;4.13;3.35;;;23.00;99.90;;;;;;5126218;27;20239;-80
2023/07/17 01:01:52;;;;;;;3.38;3.10;;;23.00;99.90;;;;;;5128964;27;20297;-80
2023/07/17 01:04:19;;;;;;;3.47;3.17;;;23.00;99.90;;;;;;5129352;27;20305;-79
2023/07/17 01:06:46;;;;;;;5.20;3.10;;;22.90;99.90;;;;;;5113259;27;20288;-80
2023/07/17 01:09:13;;;;;;;3.50;3.20;;;22.90;99.90;;;;;;5108414;28;20320;-80
2023/07/17 01:11:42;;;;;;;5.82;3.60;;;22.90;99.90;;;;;;5108228;28;20290;-80
2023/07/17 01:14:16;;;;;;;4.68;3.60;;;22.80;99.90;;;;;;5108375;28;20325;-80
2023/07/17 01:16:43;;;;;;;3.38;3.00;;;22.80;99.90;;;;;;5107692;28;20917;-80
2023/07/17 01:19:10;;;;;;;3.40;3.20;;;22.90;99.90;;;;;;5116870;27;20202;-81
2023/07/17 01:21:43;;;;;;;5.97;3.50;;;22.90;99.90;;;;;;5110865;27;20637;-81
2023/07/17 01:24:12;;;;;;;3.53;3.22;;;22.90;99.90;;;;;;5107781;28;20194;-81
2023/07/17 01:26:39;;;;;;;5.93;3.50;;;23.00;99.90;;;;;;5107579;28;20668;-81
2023/07/17 01:29:06;;;;;;;3.55;3.25;;;23.00;99.90;;;;;;5107548;28;20210;-81
2023/07/17 01:31:33;;;;;;;3.60;3.40;;;23.00;99.90;;;;;;5108083;27;20301;-81
2023/07/17 01:34:00;;;;;;;3.80;3.50;;;23.00;99.90;;;;;;5111997;27;20632;-81
2023/07/17 01:36:26;;;;;;;4.47;4.03;;;23.00;99.90;;;;;;5118735;27;20328;-82
2023/07/17 01:38:54;;;;;;;3.78;3.47;;;23.00;99.90;;;;;;5127378;27;20209;-81
2023/07/17 01:41:23;;;;;;;3.85;3.45;;;23.10;99.90;;;;;;5127840;27;20676;-81
2023/07/17 01:43:50;;;;;;;8.15;4.03;;;23.00;99.90;;;;;;5110225;27;20214;-80
2023/07/17 01:46:17;;;;;;;5.20;3.90;;;22.70;99.90;;;;;;5118790;27;20293;-81
2023/07/17 01:48:45;;;;;;;4.07;3.50;;;22.30;99.90;;;;;;5109263;28;20305;-77
2023/07/17 01:51:12;;;;;;;3.65;3.35;;;22.30;99.90;;;;;;5122028;27;20197;-79
2023/07/17 01:53:38;;;;;;;5.75;3.80;;;22.00;99.90;;;;;;5129207;27;20383;-80
2023/07/17 01:56:05;;;;;;;4.32;3.45;;;21.90;99.90;;;;;;5129336;27;20229;-78
2023/07/17 01:58:33;;;;;;;3.92;3.53;;;22.00;99.90;;;;;;5128368;27;20317;-78
2023/07/17 02:01:00;;;;;;;3.90;3.42;;;22.10;99.90;;;;;;5108422;28;20202;-78
2023/07/17 02:03:27;;;;;;;4.38;3.70;;;22.00;99.90;;;;;;5123105;27;20284;-78
2023/07/17 02:05:56;;;;;;;5.35;3.33;;;22.10;99.90;;;;;;5123916;27;20206;-78
2023/07/17 02:08:23;;;;;;;4.00;3.58;;;22.20;99.90;;;;;;5116873;27;20209;-81
2023/07/17 02:10:51;;;;;;;3.33;3.13;;;22.20;99.90;;;;;;5115762;27;20326;-81
2023/07/17 02:13:18;;;;;;;4.63;3.75;;;22.20;99.90;;;;;;5120391;27;20222;-82
2023/07/17 02:15:47;;;;;;;7.45;3.55;;;22.30;99.90;;;;;;5118377;27;20201;-82
2023/07/17 02:18:14;;;;;;;3.75;3.40;;;22.20;99.90;;;;;;5116642;27;20207;-81
2023/07/17 02:20:41;;;;;;;4.07;3.65;;;22.00;99.90;;;;;;5118689;27;20820;-81
2023/07/17 02:23:07;;;;;;;3.83;3.50;;;22.10;99.90;;;;;;5125855;27;20305;-76
2023/07/17 02:25:34;;;;;;;4.05;3.58;;;22.10;99.90;;;;;;5128319;27;20209;-75
2023/07/17 02:28:01;;;;;;;3.83;3.53;;;22.00;99.90;;;;;;5123286;27;20209;-75
2023/07/17 02:30:28;;;;;;;4.43;4.03;;;22.00;99.90;;;;;;5107709;28;20293;-76
2023/07/17 02:32:56;;;;;;;4.78;3.78;;;21.90;99.90;;;;;;5107837;27;20234;-75
2023/07/17 02:35:23;;;;;;;4.93;4.00;;;21.80;99.90;;;;;;5107798;28;20297;-77
2023/07/17 02:37:50;;;;;;;4.47;3.60;;;21.50;99.90;;;;;;5107613;28;20233;-77
2023/07/17 02:40:18;;;;;;;4.93;3.75;;;21.30;99.90;;;;;;5115967;27;20288;-77
2023/07/17 02:42:45;;;;;;;5.43;3.35;;;21.30;99.90;;;;;;5128203;27;20219;-77
2023/07/17 02:45:11;;;;;;;4.18;3.65;;;21.40;99.90;;;;;;5127758;27;20312;-76
2023/07/17 02:47:38;;;;;;;4.30;3.50;;;21.40;99.90;;;;;;5127532;27;20374;-77
2023/07/17 02:50:08;;;;;;;3.88;3.30;;;21.50;99.90;;;;;;5143918;27;20291;-76
2023/07/17 02:52:36;;;;;;;5.47;3.67;;;21.50;99.90;;;;;;5127198;27;20308;-76
2023/07/17 02:55:04;;;;;;;4.80;3.88;;;21.50;99.90;;;;;;5127044;27;20672;-76
2023/07/17 02:57:32;;;;;;;4.25;3.95;;;21.50;99.90;;;;;;5127602;27;20244;-76
2023/07/17 02:59:59;;;;;;;5.75;3.65;;;21.60;99.90;;;;;;5122092;27;20197;-76
2023/07/17 03:02:26;;;;;;;3.83;3.53;;;21.50;99.90;;;;;;5106799;28;20296;-76
2023/07/17 03:04:53;;;;;;;3.97;3.67;;;21.40;99.90;;;;;;5118967;27;20447;-76
2023/07/17 03:07:21;;;;;;;5.88;3.92;;;21.40;99.90;;;;;;5127266;27;20308;-76
2023/07/17 03:09:48;;;;;;;5.30;3.80;;;21.40;99.90;;;;;;5126875;27;20215;-76
2023/07/17 03:12:16;;;;;;;4.13;3.75;;;20.90;99.90;;;;;;5127330;27;20201;-76
2023/07/17 03:14:43;;;;;;;4.20;3.90;;;20.90;99.90;;;;;;5127041;27;20237;-76
2023/07/17 03:17:10;;;;;;;4.30;3.63;;;21.00;99.90;;;;;;5116788;27;20598;-76
2023/07/17 03:19:38;;;;;;;6.32;3.53;;;21.10;99.90;;;;;;5124425;27;20209;-76
2023/07/17 03:22:05;;;;;;;4.35;3.60;;;21.10;99.90;;;;;;5125815;27;20929;-78
2023/07/17 03:24:33;;;;;;;3.70;3.40;;;21.20;99.90;;;;;;5126793;27;20832;-77
2023/07/17 03:27:00;;;;;;;5.43;3.72;;;21.10;99.90;;;;;;5124775;27;20293;-77
2023/07/17 03:29:27;;;;;;;4.45;4.05;;;21.20;99.90;;;;;;5122045;27;20213;-77
2023/07/17 03:31:54;;;;;;;6.47;3.90;;;21.20;99.90;;;;;;5126732;27;20214;-76
2023/07/17 03:34:21;;;;;;;8.02;3.83;;;21.20;99.90;;;;;;5127132;27;20328;-79
2023/07/17 03:36:48;;;;;;;4.72;3.78;;;21.20;99.90;;;;;;5127066;27;20207;-78
2023/07/17 03:39:15;;;;;;;4.68;4.30;;;21.20;99.90;;;;;;5123952;27;20232;-77
2023/07/17 03:41:43;;;;;;;6.00;4.03;;;21.20;99.90;;;;;;5106416;28;20652;-78
2023/07/17 03:44:12;;;;;;;5.05;4.38;;;21.30;99.90;;;;;;5106553;28;20293;-78
2023/07/17 03:46:39;;;;;;;4.47;4.18;;;21.30;99.90;;;;;;5111143;27;20642;-78
2023/07/17 03:49:06;;;;;;;4.95;3.95;;;21.30;99.90;;;;;;5106640;28;20569;-80
2023/07/17 03:51:33;;;;;;;4.60;3.83;;;21.10;99.90;;;;;;5105735;28;20198;-80
2023/07/17 03:54:00;;;;;;;4.13;3.83;;;20.70;99.90;;;;;;5105474;28;20230;-76
2023/07/17 03:56:26;;;;;;;4.50;4.10;;;20.70;99.90;;;;;;5105874;28;20210;-76
2023/07/17 03:58:55;;;;;;;4.90;3.45;;;20.70;99.90;;;;;;5105387;28;20248;-76
2023/07/17 04:01:21;;;;;;;6.80;4.10;;;20.80;99.90;;;;;;5105573;28;20277;-76
2023/07/17 04:03:48;;;;;;;4.38;3.92;;;20.80;99.90;;;;;;5105947;28;20319;-79
2023/07/17 04:06:15;;;;;;;6.20;3.97;;;20.40;99.90;;;;;;5109238;28;20271;-79
2023/07/17 04:08:42;;;;;;;5.07;4.10;;;20.20;99.90;;;;;;5126241;27;20288;-79
2023/07/17 04:11:09;;;;;;;4.53;4.10;;;20.10;99.90;;;;;;5125358;27;20212;-80
2023/07/17 04:13:36;;;;;;;4.33;3.93;;;20.10;99.90;;;;;;5126104;28;20274;-79
2023/07/17 04:16:05;;;;;;;5.82;4.30;;;20.10;99.90;;;;;;5126183;28;20311;-79
2023/07/17 04:18:32;;;;;;;5.80;3.73;;;20.10;99.90;;;;;;5126402;28;20254;-78
2023/07/17 04:20:59;;;;;;;4.40;4.03;;;19.90;99.90;;;;;;5126424;28;20201;-80
2023/07/17 04:23:25;;;;;;;5.43;4.13;;;20.00;99.90;;;;;;5119879;28;20290;-79
2023/07/17 04:25:52;;;;;;;4.85;4.10;;;20.20;99.90;;;;;;5105859;27;20202;-79
2023/07/17 04:28:19;;;;;;;4.10;3.65;;;20.40;99.90;;;;;;5105476;28;20658;-79
2023/07/17 04:30:46;;;;;;;4.53;3.95;;;20.50;99.90;;;;;;5105163;28;20691;-77
2023/07/17 04:33:14;;;;;;;4.60;4.20;;;20.60;99.90;;;;;;5106645;28;20614;-77
2023/07/17 04:35:41;;;;;;;5.53;4.28;;;20.80;99.90;;;;;;5110000;27;20202;-77
2023/07/17 04:38:08;;;;;;;4.55;4.15;;;20.90;99.90;;;;;;5109896;28;20297;-77
2023/07/17 04:40:35;;;;;;;5.82;4.18;;;20.90;99.90;;;;;;5109932;28;20212;-78
2023/07/17 04:43:02;;;;;;;4.35;3.95;;;20.80;99.90;;;;;;5109585;28;20296;-77
2023/07/17 04:45:29;;;;;;;5.53;3.92;;;20.80;99.90;;;;;;5109970;28;20214;-77
2023/07/17 04:47:56;;;;;;;6.07;4.32;;;20.90;99.90;;;;;;5130516;27;20308;-77
2023/07/17 04:50:26;;;;;;;5.57;4.20;;;21.00;99.90;;;;;;5128211;27;20205;-77
2023/07/17 04:52:53;;;;;;;3.90;3.60;;;21.00;99.90;;;;;;5109861;28;20206;-77
2023/07/17 04:55:21;;;;;;;3.72;3.42;;;20.80;99.90;;;;;;5110145;28;20240;-78
2023/07/17 04:57:48;;;;;;;4.65;4.22;;;20.70;99.90;;;;;;5125384;27;20248;-78
2023/07/17 05:00:16;;;;;;;5.78;4.18;;;20.70;99.90;;;;;;5130264;27;20201;-77
2023/07/17 05:02:43;;;;;;;7.40;4.45;;;20.60;99.90;;;;;;5129974;27;20212;-77
2023/07/17 05:05:10;;;;;;;7.50;4.80;;;20.70;99.90;;;;;;5128009;27;20212;-77
2023/07/17 05:07:41;;;;;;;4.57;4.05;;;20.70;99.90;;;;;;5130416;27;20207;-77
2023/07/17 05:10:10;;;;;;;4.20;3.80;;;20.60;99.90;;;;;;5129486;27;20285;-77
2023/07/17 05:12:37;;;;;;;5.75;4.05;;;20.70;99.90;;;;;;5130382;27;20209;-76
2023/07/17 05:15:04;;;;;;;6.10;4.22;;;20.80;99.90;;;;;;5128323;27;20236;-76
2023/07/17 05:17:31;;;;;;;4.10;3.80;;;20.90;99.90;;;;;;5121494;27;20288;-77
2023/07/17 05:19:58;;;;;;;5.43;4.25;;;21.00;99.90;;;;;;5129505;27;20212;-76
2023/07/17 05:22:26;;;;;;;9.25;4.20;;;21.00;99.90;;;;;;5129290;27;20220;-76
2023/07/17 05:24:54;;;;;;;4.65;3.80;;;20.70;99.90;;;;;;5129242;27;20217;-76
2023/07/17 05:27:22;;;;;;;7.80;4.10;;;20.60;99.90;;;;;;5128540;27;20212;-76
2023/07/17 05:29:48;;;;;;;5.38;4.30;;;20.40;99.90;;;;;;5129332;27;20310;-77
2023/07/17 05:32:15;;;;;;;5.07;3.90;;;20.40;99.90;;;;;;5129105;27;20207;-77
2023/07/17 05:34:42;;;;;;;4.40;4.00;;;20.60;99.90;;;;;;5129128;27;20229;-78
2023/07/17 05:37:09;;;;;;;4.82;4.05;;;20.80;99.90;;;;;;5129416;27;20212;-78
2023/07/17 05:39:36;;;;;;;5.05;4.45;;;21.00;99.90;;;;;;5124607;27;20233;-77
2023/07/17 05:42:05;;;;;;;5.00;3.78;;;21.00;99.90;;;;;;5109022;28;20229;-77
2023/07/17 05:44:32;;;;;;;5.93;4.50;;;21.20;99.90;;;;;;5107996;28;20305;-77
2023/07/17 05:46:59;;;;;;;5.45;4.38;;;21.30;99.90;;;;;;5108968;28;20233;-77
2023/07/17 05:49:25;;;;;;;5.03;4.53;;;21.40;99.90;;;;;;5108575;28;20249;-80
2023/07/17 05:51:52;;;;;;;5.40;4.90;;;21.50;99.90;;;;;;5108590;28;20241;-81
2023/07/17 05:54:19;;;;;;;4.75;4.35;;;21.60;99.90;;;;;;5108756;28;20222;-81
2023/07/17 05:56:46;;;;;;;4.85;4.35;;;21.20;99.90;;;;;;5108506;28;20206;-77
2023/07/17 05:59:14;;;;;;;5.43;4.25;;;21.30;99.90;;;;;;5110647;27;20321;-78
2023/07/17 06:01:41;;;;;;;4.60;4.20;;;21.30;99.90;;;;;;5108595;28;20305;-78
2023/07/17 06:04:08;;;;;;;5.25;4.15;;;21.30;99.90;;;;;;5108366;28;20217;-78
2023/07/17 06:06:35;;;;;;;4.65;4.10;;;21.20;99.90;;;;;;5107918;28;20263;-79
2023/07/17 06:09:02;;;;;;;4.55;4.20;;;21.10;99.90;;;;;;5107890;28;20243;-76
2023/07/17 06:11:29;;;;;;;5.07;4.47;;;21.30;99.90;;;;;;5120319;27;20205;-76
2023/07/17 06:13:56;;;;;;;5.28;4.22;;;21.50;99.90;;;;;;5127463;27;20683;-76
2023/07/17 06:16:24;;;;;;;4.47;4.07;;;21.50;99.90;;;;;;5128237;27;20221;-77
2023/07/17 06:18:53;;;;;;;4.75;4.18;;;21.50;99.90;;;;;;5128731;27;20605;-77
2023/07/17 06:21:20;;;;;;;9.40;4.03;;;21.70;99.90;;;;;;5128450;27;20212;-77
2023/07/17 06:23:47;;;;;;;5.93;3.97;;;21.60;99.90;;;;;;5112463;27;20255;-77
2023/07/17 06:26:14;;;;;;;6.28;4.22;;;21.60;99.90;;;;;;5107365;28;20233;-77
2023/07/17 06:28:42;;;;;;;5.67;3.70;;;21.60;99.90;;;;;;5107452;28;20224;-80
2023/07/17 06:31:09;;;;;;;5.57;4.30;;;21.50;99.90;;;;;;5107806;28;20296;-81
2023/07/17 06:33:40;;;;;;;5.82;4.32;;;21.40;99.90;;;;;;5108216;28;20734;-80
2023/07/17 06:36:07;;;;;;;4.93;3.97;;;21.40;99.90;;;;;;5126050;27;20194;-81
2023/07/17 06:38:34;;;;;;;4.60;4.25;;;21.40;99.90;;;;;;5128061;27;20212;-80
2023/07/17 06:41:03;;;;;;;4.57;4.17;;;21.30;99.90;;;;;;5127319;27;20298;-78
2023/07/17 06:43:30;;;;;;;6.43;4.05;;;21.30;99.90;;;;;;5127388;27;20805;-78
2023/07/17 06:45:57;;;;;;;5.00;4.10;;;21.20;99.90;;;;;;5127385;27;20219;-78
2023/07/17 06:48:24;;;;;;;7.20;4.47;;;21.40;99.90;;;;;;5127849;27;20210;-78
2023/07/17 06:50:52;;;;;;;7.20;4.57;;;21.30;99.90;;;;;;5120337;27;20229;-78
2023/07/17 06:53:19;;;;;;;6.07;4.30;;;21.30;99.90;;;;;;5107055;28;20246;-78
2023/07/17 06:55:46;;;;;;;4.37;3.97;;;21.40;99.90;;;;;;5106863;28;20817;-78
2023/07/17 06:58:13;;;;;;;4.93;4.40;;;21.40;99.90;;;;;;5106661;28;20366;-78
2023/07/17 07:00:39;;;;;;;5.57;4.20;;;21.40;99.90;;;;;;5106791;28;20743;-77
2023/07/17 07:03:06;;;;;;;5.20;4.20;;;21.30;99.90;;;;;;5125663;27;20745;-77
2023/07/17 07:05:33;;;;;;;4.57;4.10;;;21.40;99.90;;;;;;5127016;27;20288;-77
2023/07/17 07:08:02;;;;;;;4.90;4.40;;;21.40;99.90;;;;;;5127115;27;20209;-78
2023/07/17 07:10:29;;;;;;;4.90;4.03;;;21.60;99.90;;;;;;5113418;27;20201;-80
2023/07/17 07:12:56;;;;;;;4.80;4.35;;;21.60;99.90;;;;;;5109472;27;20205;-84
2023/07/17 07:15:23;;;;;;;5.03;4.13;;;21.70;99.90;;;;;;5127443;27;20327;-79
2023/07/17 07:17:50;;;;;;;4.57;4.18;;;21.80;99.90;;;;;;5118615;27;20298;-78
2023/07/17 07:20:17;;;;;;;6.20;4.20;;;21.80;99.80;;;;;;5114495;27;20285;-79
2023/07/17 07:22:44;;;;;;;6.10;4.57;;;21.90;99.90;;;;;;5106219;28;20289;-79
2023/07/17 07:25:12;;;;;;;7.15;4.03;;;22.00;99.60;;;;;;5123834;27;20739;-78
2023/07/17 07:27:39;;;;;;;5.47;4.47;;;22.10;99.00;;;;;;5121410;27;20284;-77
2023/07/17 07:30:07;;;;;;;4.13;3.72;;;22.30;99.10;;;;;;5126936;27;20220;-77
2023/07/17 07:32:34;;;;;;;5.35;3.92;;;22.40;98.80;;;;;;5126813;27;20312;-77
2023/07/17 07:35:01;;;;;;;14.05;4.13;;;22.40;98.60;;;;;;5125936;27;20707;-75
2023/07/17 07:37:27;;;;;;;5.07;3.95;;;22.50;98.30;;;;;;5126440;27;20201;-77
2023/07/17 07:39:54;;;;;;;4.55;4.15;;;22.50;98.60;;;;;;5109324;27;20204;-77
2023/07/17 07:42:23;;;;;;;8.77;4.60;;;22.70;98.40;;;;;;5106600;28;20230;-77
2023/07/17 07:44:49;;;;;;;8.02;4.50;;;22.70;98.10;;;;;;5106221;28;20206;-78
2023/07/17 07:47:16;;;;;;;6.13;4.60;;;22.80;97.70;;;;;;5121800;27;20211;-78
2023/07/17 07:49:43;;;;;;;5.80;4.25;;;22.80;97.60;;;;;;5140312;27;20216;-79
2023/07/17 07:52:10;;;;;;;5.25;3.78;;;22.90;98.00;;;;;;5109015;27;20289;-79
2023/07/17 07:54:37;;;;;;;4.30;3.90;;;22.90;98.10;;;;;;5105996;28;20321;-79
2023/07/17 07:57:04;;;;;;;10.55;3.70;;;23.10;97.50;;;;;;5106192;28;20300;-80
2023/07/17 07:59:32;;;;;;;9.75;4.07;;;23.10;97.40;;;;;;5106698;27;20320;-78
2023/07/17 08:01:59;;;;;;;4.10;3.22;;;23.20;97.10;;;;;;5126479;27;20292;-78
2023/07/17 08:04:26;;;;;;;5.05;3.83;;;23.00;95.80;;;;;;5126337;27;20714;-78
2023/07/17 08:06:53;;;;;;;5.38;4.15;;;22.90;96.60;;;;;;5126397;27;20292;-78
2023/07/17 08:09:20;;;;;;;6.00;3.70;;;23.00;97.00;;;;;;5125274;27;20288;-77
2023/07/17 08:11:47;;;;;;;4.72;4.05;;;23.10;97.20;;;;;;5105450;28;20210;-77
2023/07/17 08:14:14;;;;;;;5.47;3.95;;;23.10;97.20;;;;;;5105738;28;20353;-77
2023/07/17 08:16:42;;;;;;;7.25;3.85;;;23.20;97.30;;;;;;5105749;28;20312;-78
2023/07/17 08:19:09;;;;;;;6.75;4.50;;;23.20;97.20;;;;;;5114028;27;20984;-77
2023/07/17 08:21:35;;;;;;;4.20;3.80;;;23.20;97.20;;;;;;5108073;28;20676;-77
2023/07/17 08:24:02;;;;;;;5.97;3.63;;;23.30;97.40;;;;;;5106978;28;20296;-78
2023/07/17 08:26:30;;;;;;;6.78;4.03;;;23.40;97.10;;;;;;5122902;28;20293;-79
2023/07/17 08:28:58;;;;;;;8.38;3.88;;;23.40;96.30;;;;;;5104638;28;20677;-79
2023/07/17 08:31:25;;;;;;;5.60;4.05;;;23.40;96.10;;;;;;5105893;28;20300;-80
2023/07/17 08:33:54;;;;;;;7.32;4.30;;;23.40;96.10;;;;;;5104284;28;20241;-79
2023/07/17 08:36:22;;;;;;;5.78;4.05;;;23.50;96.20;;;;;;5104505;28;20233;-80
2023/07/17 08:38:49;;;;;;;6.43;4.13;;;23.60;95.90;;;;;;5104342;28;20285;-80
2023/07/17 08:41:16;;;;;;;6.82;3.60;;;23.60;96.10;;;;;;5104579;28;20241;-81
2023/07/17 08:43:43;;;;;;;19.95;4.85;;;23.80;96.30;;;;;;5104132;28;20582;-81
2023/07/17 08:46:12;;;;;;;7.10;3.78;;;23.80;95.90;;;;;;5105074;28;20216;-82
2023/07/17 08:48:39;;;;;;;4.65;4.00;;;23.90;95.80;;;;;;5109246;27;20296;-80
2023/07/17 08:51:09;;;;;;;5.82;3.90;;;24.00;96.00;;;;;;5116857;28;20206;-79
2023/07/17 08:53:37;;;;;;;4.72;3.78;;;24.20;95.60;;;;;;5106737;28;20202;-81
2023/07/17 08:56:05;;;;;;;8.77;3.92;;;24.30;95.40;;;;;;5125892;28;20667;-81
2023/07/17 08:58:32;;;;;;;4.93;3.92;;;24.40;96.10;;;;;;5124882;28;20255;-80
2023/07/17 09:01:00;;;;;;;7.90;4.13;;;24.40;95.40;;;;;;5124570;28;20216;-80
2023/07/17 09:03:28;;;;;;;6.03;3.60;;;24.40;95.50;;;;;;5124515;28;20585;-80
2023/07/17 09:05:54;;;;;;;3.97;3.63;;;24.30;94.60;;;;;;5105112;27;20217;-80
2023/07/17 09:08:23;;;;;;;7.53;3.83;;;24.30;95.20;;;;;;5104565;28;20212;-79
2023/07/17 09:11:02;;;;;;;7.53;3.55;;;24.30;94.90;;;;;;5103834;28;20300;-79
2023/07/17 09:13:37;;;;;;;4.93;3.65;;;24.40;94.40;;;;;;5111414;28;20312;-80
2023/07/17 09:16:14;;;;;;;8.07;4.53;;;24.40;94.30;;;;;;5124189;28;20558;-80
2023/07/17 09:18:41;;;;;;;8.15;3.95;;;24.50;94.40;;;;;;5127992;27;20927;-81
2023/07/17 09:21:08;;;;;;;4.38;3.78;;;24.50;94.60;;;;;;5148164;27;20641;-80
2023/07/17 09:23:40;;;;;;;6.72;3.95;;;24.70;94.50;;;;;;5148152;27;20678;-79
2023/07/17 09:26:08;;;;;;;5.80;3.80;;;24.80;93.70;;;;;;5142129;27;20290;-80
2023/07/17 09:28:38;;;;;;;8.63;3.78;;;24.70;93.60;;;;;;5107965;28;20589;-81
2023/07/17 09:31:05;;;;;;;4.63;3.70;;;24.70;93.60;;;;;;5127839;27;20201;-81
2023/07/17 09:33:36;;;;;;;3.75;3.42;;;24.60;93.10;;;;;;5125842;27;20209;-78
2023/07/17 09:36:04;;;;;;;4.68;3.70;;;24.70;93.10;;;;;;5125081;27;20221;-77
2023/07/17 09:38:32;;;;;;;9.20;3.70;;;24.60;93.10;;;;;;5129885;27;20219;-81
2023/07/17 09:41:00;;;;;;;8.05;3.97;;;24.60;92.80;;;;;;5131272;27;20201;-80
2023/07/17 09:43:31;;;;;;;8.23;3.60;;;24.80;93.10;;;;;;5131532;27;20216;-80
2023/07/17 09:46:00;;;;;;;8.15;4.18;;;25.00;93.10;;;;;;5131652;27;20213;-80
2023/07/17 09:48:28;;;;;;;4.68;3.70;;;25.00;92.80;;;;;;5134430;27;20232;-80
2023/07/17 09:50:57;;;;;;;5.75;3.60;;;25.00;93.10;;;;;;5128533;27;20205;-81
2023/07/17 09:53:25;;;;;;;4.68;3.50;;;25.20;92.80;;;;;;5129733;27;20197;-81
2023/07/17 09:55:54;;;;;;;5.28;3.80;;;25.20;92.50;;;;;;5131379;27;20316;-81
2023/07/17 09:58:25;;;;;;;3.92;3.38;;;25.30;92.70;;;;;;5131418;27;20264;-81
2023/07/17 10:00:56;;;;;;;6.68;3.47;;;25.50;92.10;;;;;;5131476;27;20650;-82
2023/07/17 10:03:24;;;;;;;4.53;3.53;;;25.50;91.80;;;;;;5132074;27;20732;-80
2023/07/17 10:05:54;;;;;;;5.13;3.72;;;25.60;92.20;;;;;;5131327;27;20736;-80
2023/07/17 10:08:23;;;;;;;7.05;3.60;;;25.80;92.10;;;;;;5131661;27;20228;-81
2023/07/17 10:10:49;;;;;;;5.97;3.72;;;25.90;92.30;;;;;;5118223;27;20735;-81
2023/07/17 10:13:16;;;;;;;5.55;3.88;;;25.90;91.00;;;;;;5110582;27;20997;-81
2023/07/17 10:15:45;;;;;;;5.18;3.50;;;25.80;91.40;;;;;;5110378;28;20306;-82
2023/07/17 10:18:12;;;;;;;8.93;4.13;;;25.70;91.70;;;;;;5112300;27;20297;-81
2023/07/17 10:20:40;;;;;;;5.03;3.58;;;25.70;91.40;;;;;;5146906;27;20201;-81
2023/07/17 10:23:22;;;;;;;8.95;3.50;;;25.70;91.50;;;;;;5113231;27;20210;-82
2023/07/17 10:25:49;;;;;;;5.93;3.30;;;25.80;91.30;;;;;;5111094;28;20257;-80
2023/07/17 10:28:30;;;;;;;5.93;3.38;;;25.80;91.60;;;;;;5111309;28;20437;-82
2023/07/17 10:31:04;;;;;;;7.22;3.33;;;25.80;91.30;;;;;;5110146;28;20190;-82
2023/07/17 10:33:36;;;;;;;3.83;3.53;;;25.80;91.20;;;;;;5110886;27;20193;-81
2023/07/17 10:36:03;;;;;;;5.35;3.55;;;25.80;90.80;;;;;;5109267;28;20341;-81
2023/07/17 10:38:35;;;;;;;5.65;3.40;;;25.80;90.20;;;;;;5108913;28;20210;-82
2023/07/17 10:41:03;;;;;;;6.50;3.50;;;26.00;90.40;;;;;;5109778;27;20197;-82
2023/07/17 10:43:30;;;;;;;3.45;3.15;;;26.10;90.60;;;;;;5108336;28;20714;-80
2023/07/17 10:45:59;;;;;;;6.93;3.40;;;26.40;90.90;;;;;;5116354;27;20642;-80
2023/07/17 10:48:26;;;;;;;4.68;3.72;;;26.50;90.90;;;;;;5112127;27;20206;-84
2023/07/17 10:50:57;;;;;;;4.10;3.60;;;26.50;91.70;;;;;;5111055;27;20955;-82
2023/07/17 10:53:24;;;;;;;5.30;3.55;;;26.60;91.30;;;;;;5106847;28;20243;-82
2023/07/17 10:55:51;;;;;;;6.00;3.58;;;26.50;91.70;;;;;;5117611;27;20670;-80
2023/07/17 10:58:20;;;;;;;4.90;3.50;;;26.30;90.50;;;;;;5132940;27;20236;-80
2023/07/17 11:00:47;;;;;;;6.35;3.05;;;26.10;90.70;;;;;;5148512;27;20217;-83
2023/07/17 11:03:16;;;;;;;6.35;3.10;;;26.20;90.60;;;;;;5148561;27;20319;-82
2023/07/17 11:05:45;;;;;;;5.07;3.15;;;26.40;89.40;;;;;;5147900;27;20265;-82
2023/07/17 11:08:13;;;;;;;7.20;3.40;;;26.50;90.10;;;;;;5130634;27;20302;-82
2023/07/17 11:10:41;;;;;;;4.28;3.00;;;26.70;89.70;;;;;;5106538;28;20234;-82
2023/07/17 11:13:09;;;;;;;3.72;3.28;;;26.50;88.70;;;;;;5106570;28;20431;-82
2023/07/17 11:15:36;;;;;;;3.78;3.05;;;26.50;89.60;;;;;;5110633;27;20248;-82
2023/07/17 11:18:05;;;;;;;3.80;3.35;;;26.60;88.70;;;;;;5126382;27;20221;-82
2023/07/17 11:20:33;;;;;;;7.85;3.53;;;26.70;88.50;;;;;;5127987;27;20323;-82
2023/07/17 11:23:00;;;;;;;6.60;3.47;;;26.80;88.80;;;;;;5127844;27;20216;-82
2023/07/17 11:25:29;;;;;;;6.18;2.97;;;26.70;87.40;;;;;;5127544;27;20675;-82
2023/07/17 11:27:57;;;;;;;3.47;2.97;;;26.80;86.30;;;;;;5123509;27;20198;-84
2023/07/17 11:30:27;;;;;;;3.65;2.63;;;27.00;85.70;;;;;;5106847;28;20206;-83
2023/07/17 11:33:01;;;;;;;3.28;2.50;;;27.30;84.90;;;;;;5107028;28;20285;-82
2023/07/17 11:35:45;;;;;;;5.63;2.78;;;27.40;79.90;;;;;;5109005;27;20631;-82
2023/07/17 11:38:14;;;;;;;4.80;2.90;;;27.30;81.30;;;;;;5106921;28;20271;-82
2023/07/17 11:41:04;;;;;;;5.82;3.05;;;27.50;81.90;;;;;;5106593;28;20202;-82
2023/07/17 11:43:33;;;;;;;4.90;3.00;;;27.70;82.40;;;;;;5085346;28;20606;-82
2023/07/17 11:46:02;;;;;;;5.97;3.05;;;27.80;82.40;;;;;;5107368;27;20233;-82
2023/07/17 11:48:30;;;;;;;4.18;2.92;;;27.60;81.50;;;;;;5106573;28;20202;-81
2023/07/17 11:51:01;;;;;;;4.03;2.80;;;27.80;82.70;;;;;;5106359;28;20655;-83
2023/07/17 11:53:28;;;;;;;5.57;3.20;;;27.90;83.30;;;;;;5106843;28;20374;-82
2023/07/17 11:55:55;;;;;;;4.47;2.42;;;28.00;81.90;;;;;;5123924;27;20267;-82
2023/07/17 11:58:23;;;;;;;3.08;2.55;;;27.80;78.20;;;;;;5126943;27;20629;-79
2023/07/17 12:00:52;;;;;;;3.38;3.08;;;27.90;79.60;;;;;;5126307;27;20616;-77
2023/07/17 12:03:19;;;;;;;5.78;2.85;;;28.00;79.30;;;;;;5117511;27;20300;-76
2023/07/17 12:05:46;;;;;;;4.40;2.95;;;27.70;79.10;;;;;;5119298;27;20289;-76
2023/07/17 12:08:15;;;;;;;4.72;2.70;;;27.70;79.20;;;;;;5104578;28;20202;-77
2023/07/17 12:10:42;;;;;;;2.67;2.45;;;27.90;76.80;;;;;;5111374;27;20209;-76
2023/07/17 12:13:10;;;;;;;3.63;2.90;;;28.00;77.10;;;;;;5124573;27;20214;-77
2023/07/17 12:15:37;;;;;;;3.17;2.65;;;27.90;77.40;;;;;;5124026;28;20230;-77
2023/07/17 12:18:04;;;;;;;4.18;2.80;;;28.20;78.00;;;;;;5124515;28;20341;-77
2023/07/17 12:20:32;;;;;;;4.00;2.55;;;28.00;76.20;;;;;;5144700;27;20227;-76
2023/07/17 12:22:59;;;;;;;4.75;2.58;;;27.80;74.70;;;;;;5124216;27;20210;-77
2023/07/17 12:25:29;;;;;;;3.05;2.30;;;28.00;75.30;;;;;;5103471;28;20614;-77
2023/07/17 12:28:00;;;;;;;6.47;2.55;;;28.10;76.50;;;;;;5113949;28;20932;-77
2023/07/17 12:30:29;;;;;;;2.85;2.50;;;27.90;77.90;;;;;;5114153;28;20229;-76
2023/07/17 12:32:57;;;;;;;3.90;2.40;;;27.60;76.80;;;;;;5120512;28;20664;-77
2023/07/17 12:35:24;;;;;;;2.60;2.17;;;27.40;74.60;;;;;;5119118;28;20197;-77
2023/07/17 12:37:51;;;;;;;3.22;2.30;;;27.10;75.10;;;;;;5104531;28;20226;-76
2023/07/17 12:40:18;;;;;;;4.60;2.38;;;27.20;76.40;;;;;;5103862;28;20686;-77
2023/07/17 12:42:47;;;;;;;3.08;2.15;;;27.40;76.10;;;;;;5104183;28;20209;-77
2023/07/17 12:45:14;;;;;;;3.17;2.47;;;27.30;75.40;;;;;;5115821;28;20205;-77
2023/07/17 12:47:41;;;;;;;2.25;2.03;;;27.40;73.90;;;;;;5124535;28;20205;-77